Evansville, Vermont
Current Conditions -  °F | °C
As of 11:35 AM on Friday 24 Oct 2014 (Local Time) from KEFK Reporting Station
Haze Haze  
Wind Chill: 36°   Ceiling: 600
Heat Index: 40°   Visibility: 2mi
Dew Point: 40°   Wind: 7mph
Humidity: 98%   Direction: 320°NW
Pressure: 29.82"   Gusts: NA
Location:  44.7955°N, 72.0983°W
Report Text: KEFK 241535Z AUTO 32006KT 2SM BR OVC006 05/04 A2982 RMK AO2 T00470044
Loading
Personal Weather Stations






























Interactive Weather Map
Tropical Storm Tracking
New forecast layout! Learn more

10-Day Weather Forecast

Advertisements
Track Severe Weather on mobile